createdAt,value
2019-03-23T00:03:44.680Z,2.60
2019-03-23T00:08:36.162Z,2.50
2019-03-23T00:13:29.709Z,2.50
2019-03-23T00:18:25.648Z,2.40
2019-03-23T00:23:17.119Z,2.40
2019-03-23T00:28:08.437Z,2.40
2019-03-23T00:32:59.928Z,2.20
2019-03-23T00:37:51.222Z,2.20
2019-03-23T00:42:44.932Z,2.20
2019-03-23T00:47:38.538Z,2.20
2019-03-23T00:52:30.078Z,2.10
2019-03-23T00:57:21.404Z,2.00
2019-03-23T01:02:12.825Z,1.90
2019-03-23T01:07:04.091Z,1.90
2019-03-23T01:11:55.843Z,1.90
2019-03-23T01:16:46.936Z,1.80
2019-03-23T01:21:40.429Z,1.80
2019-03-23T01:26:31.901Z,1.70
2019-03-23T01:31:25.574Z,1.80
2019-03-23T01:36:16.990Z,1.70
2019-03-23T01:41:08.495Z,1.60
2019-03-23T01:45:59.753Z,1.60
2019-03-23T01:50:51.156Z,1.50
2019-03-23T01:55:42.611Z,1.50
2019-03-23T02:00:33.967Z,1.50
2019-03-23T02:05:25.300Z,1.50
2019-03-23T02:10:16.823Z,1.50
2019-03-23T02:15:10.314Z,1.50
2019-03-23T02:20:01.777Z,1.40
2019-03-23T02:24:53.071Z,1.40
2019-03-23T02:29:44.798Z,1.30
2019-03-23T02:34:36.980Z,1.40
2019-03-23T02:39:27.341Z,1.30
2019-03-23T02:44:18.627Z,1.30
2019-03-23T02:49:10.030Z,1.30
2019-03-23T02:54:01.483Z,1.20
2019-03-23T02:58:52.837Z,1.10
2019-03-23T03:03:44.190Z,0.80
2019-03-23T03:08:35.614Z,1.10
2019-03-23T03:13:27.088Z,1.00
2019-03-23T03:18:18.442Z,1.00
2019-03-23T03:23:09.762Z,1.00
2019-03-23T03:28:01.205Z,1.00
2019-03-23T03:32:54.731Z,0.70
2019-03-23T03:37:57.950Z,0.90
2019-03-23T03:42:37.627Z,1.00
2019-03-23T03:52:22.753Z,0.90
2019-03-23T03:57:14.054Z,0.80
2019-03-23T04:02:05.389Z,0.70
2019-03-23T04:06:56.909Z,0.80
2019-03-23T04:16:44.533Z,0.40
2019-03-23T04:21:35.515Z,0.70
2019-03-23T04:26:26.929Z,0.60
2019-03-23T04:31:20.494Z,0.50
2019-03-23T04:36:14.144Z,0.50
2019-03-23T04:41:07.819Z,0.50
2019-03-23T04:45:59.317Z,0.40
2019-03-23T04:50:52.829Z,0.40
2019-03-23T04:55:44.289Z,0.50
2019-03-23T05:00:35.611Z,0.40
2019-03-23T05:05:27.060Z,0.40
2019-03-23T05:10:18.433Z,0.40
2019-03-23T05:15:09.793Z,0.40
2019-03-23T05:20:01.116Z,0.40
2019-03-23T05:24:52.542Z,0.30
2019-03-23T05:29:43.882Z,0.40
2019-03-23T05:34:39.790Z,0.40
2019-03-23T05:39:31.136Z,0.50
2019-03-23T05:44:22.568Z,0.60
2019-03-23T05:49:13.957Z,0.70
2019-03-23T05:54:07.528Z,0.90
2019-03-23T05:58:58.978Z,1.00
2019-03-23T06:03:50.459Z,1.20
2019-03-23T06:08:41.800Z,1.40
2019-03-23T06:13:33.222Z,1.50
2019-03-23T06:23:20.653Z,1.90
2019-03-23T06:28:12.119Z,2.10
2019-03-23T06:33:03.562Z,2.30
2019-03-23T06:37:54.859Z,2.50
2019-03-23T06:47:39.967Z,2.80
2019-03-23T06:52:31.416Z,3.10
2019-03-23T06:57:22.852Z,3.30
2019-03-23T07:02:14.249Z,3.50
2019-03-23T07:07:05.673Z,3.80
2019-03-23T07:11:57.049Z,4.00
2019-03-23T07:16:48.454Z,4.30
2019-03-23T07:21:42.042Z,4.50
2019-03-23T07:26:35.755Z,4.80
2019-03-23T07:31:27.198Z,5.10
2019-03-23T07:36:18.692Z,5.50
2019-03-23T07:41:10.081Z,5.80
2019-03-23T07:46:01.459Z,6.10
2019-03-23T07:50:52.877Z,6.60
2019-03-23T07:55:44.313Z,7.00
2019-03-23T08:00:35.692Z,7.50
2019-03-23T08:05:27.066Z,7.90
2019-03-23T08:10:18.417Z,8.40
2019-03-23T08:15:09.866Z,8.80
2019-03-23T08:20:01.306Z,9.20
2019-03-23T08:24:54.799Z,9.60
2019-03-23T08:29:46.299Z,10.00
2019-03-23T08:34:39.922Z,10.40
2019-03-23T08:39:31.415Z,10.70
2019-03-23T08:44:22.807Z,11.10
2019-03-23T08:49:16.519Z,11.40
2019-03-23T08:54:07.990Z,11.90
2019-03-23T08:58:59.428Z,12.20
2019-03-23T09:03:53.424Z,12.50
2019-03-23T09:08:44.388Z,12.90
2019-03-23T09:13:41.505Z,13.30
2019-03-23T09:18:27.197Z,13.70
2019-03-23T09:23:18.628Z,13.80
2019-03-23T09:28:12.339Z,14.10
2019-03-23T09:33:05.907Z,14.40
2019-03-23T09:37:57.348Z,14.50
2019-03-23T09:42:48.743Z,14.50
2019-03-23T09:47:40.119Z,14.70
2019-03-23T09:52:33.804Z,14.90
2019-03-23T09:57:25.229Z,15.00
2019-03-23T10:02:16.619Z,15.00
2019-03-23T10:07:08.026Z,15.30
2019-03-23T10:12:01.591Z,15.50
2019-03-23T10:16:53.061Z,15.60
2019-03-23T10:21:44.448Z,15.60
2019-03-23T10:26:35.874Z,15.80
2019-03-23T10:31:27.183Z,16.00
2019-03-23T10:36:18.594Z,16.30
2019-03-23T10:41:12.139Z,16.30
2019-03-23T10:46:03.608Z,16.30
2019-03-23T10:50:57.322Z,16.10
2019-03-23T10:55:48.774Z,16.10
2019-03-23T11:00:40.180Z,16.10
2019-03-23T11:05:33.692Z,16.30
2019-03-23T11:10:25.126Z,16.30
2019-03-23T11:20:10.314Z,16.60
2019-03-23T11:25:01.660Z,16.50
2019-03-23T11:29:52.977Z,16.50
2019-03-23T11:34:46.631Z,16.70
2019-03-23T11:39:38.091Z,16.90
2019-03-23T11:49:36.742Z,16.80
2019-03-23T11:54:28.107Z,16.90
2019-03-23T11:59:21.735Z,16.80
2019-03-23T12:04:13.194Z,16.80
2019-03-23T12:09:04.601Z,16.80
2019-03-23T12:13:55.993Z,16.90
2019-03-23T12:18:47.307Z,16.80
2019-03-23T12:23:40.914Z,16.70
2019-03-23T12:28:36.903Z,16.80
2019-03-23T12:33:30.570Z,16.80
2019-03-23T12:38:22.063Z,16.80
2019-03-23T12:43:13.507Z,16.80
2019-03-23T12:48:04.881Z,16.80
2019-03-23T12:52:58.034Z,16.80
2019-03-23T12:57:47.695Z,16.90
2019-03-23T13:02:39.055Z,17.00
2019-03-23T13:07:30.484Z,16.90
2019-03-23T13:12:21.925Z,17.00
2019-03-23T13:17:13.329Z,17.00
2019-03-23T13:22:04.716Z,16.90
2019-03-23T13:26:56.156Z,17.00
2019-03-23T13:31:47.616Z,17.10
2019-03-23T13:36:39.018Z,17.30
2019-03-23T13:41:30.330Z,17.30
2019-03-23T13:46:21.770Z,17.20
2019-03-23T13:51:13.172Z,17.30
2019-03-23T13:56:04.670Z,17.30
2019-03-23T14:00:55.998Z,17.20
2019-03-23T14:05:47.323Z,17.20
2019-03-23T14:10:38.706Z,17.10
2019-03-23T14:15:30.199Z,17.20
2019-03-23T14:20:21.513Z,17.10
2019-03-23T14:25:12.961Z,17.40
2019-03-23T14:30:04.279Z,17.40
2019-03-23T14:34:55.773Z,17.50
2019-03-23T14:39:47.114Z,17.40
2019-03-23T14:44:38.504Z,17.20
2019-03-23T14:49:30.019Z,17.20
2019-03-23T14:54:21.290Z,17.10
2019-03-23T14:59:12.803Z,17.20
2019-03-23T15:04:04.228Z,17.10
2019-03-23T15:08:55.533Z,16.90
2019-03-23T15:13:48.261Z,17.00
2019-03-23T15:18:38.350Z,16.80
2019-03-23T15:23:29.756Z,16.80
2019-03-23T15:28:21.114Z,17.00
2019-03-23T15:33:12.470Z,17.00
2019-03-23T15:38:03.900Z,17.10
2019-03-23T15:42:55.350Z,17.10
2019-03-23T15:47:46.734Z,17.00
2019-03-23T15:52:38.212Z,16.90
2019-03-23T15:57:29.561Z,16.70
2019-03-23T16:02:21.006Z,16.60
2019-03-23T16:07:12.376Z,16.60
2019-03-23T16:12:03.796Z,16.50
2019-03-23T16:16:55.110Z,16.40
2019-03-23T16:21:46.555Z,16.50
2019-03-23T16:26:37.911Z,16.40
2019-03-23T16:31:29.321Z,16.30
2019-03-23T16:36:20.722Z,16.30
2019-03-23T16:41:12.093Z,16.10
2019-03-23T16:46:03.478Z,16.00
2019-03-23T16:50:54.926Z,15.90
2019-03-23T17:00:37.632Z,15.70
2019-03-23T17:05:29.054Z,15.60
2019-03-23T17:10:20.449Z,15.40
2019-03-23T17:15:11.796Z,15.20
2019-03-23T17:20:03.261Z,15.10
2019-03-23T17:24:54.598Z,14.80
2019-03-23T17:29:45.951Z,14.70
2019-03-23T17:34:37.478Z,14.50
2019-03-23T17:39:28.750Z,14.20
2019-03-23T17:44:20.217Z,14.00
2019-03-23T17:49:11.604Z,13.70
2019-03-23T17:54:02.951Z,13.30
2019-03-23T17:58:54.314Z,12.90
2019-03-23T18:03:47.998Z,12.10
2019-03-23T18:08:39.474Z,12.10
2019-03-23T18:13:30.825Z,11.70
2019-03-23T18:18:22.254Z,11.40
2019-03-23T18:23:16.071Z,11.10
2019-03-23T18:28:04.992Z,10.80
2019-03-23T18:32:56.411Z,10.60
2019-03-23T18:37:47.810Z,10.40
2019-03-23T18:42:41.395Z,9.90
2019-03-23T18:47:35.141Z,9.80
2019-03-23T18:52:28.846Z,9.60
2019-03-23T18:57:22.461Z,9.40
2019-03-23T19:02:14.037Z,9.10
2019-03-23T19:07:09.787Z,8.90
2019-03-23T19:12:01.369Z,8.70
2019-03-23T19:16:54.910Z,8.30
2019-03-23T19:21:46.346Z,8.30
2019-03-23T19:26:37.739Z,8.10
2019-03-23T19:31:29.744Z,7.90
2019-03-23T19:36:20.541Z,7.90
2019-03-23T19:41:11.938Z,7.80
2019-03-23T19:46:03.327Z,7.80
2019-03-23T19:50:54.772Z,7.60
2019-03-23T19:55:46.183Z,7.40
2019-03-23T20:00:39.654Z,7.30
2019-03-23T20:05:31.116Z,7.30
2019-03-23T20:10:22.633Z,7.20
2019-03-23T20:15:13.919Z,7.10
2019-03-23T20:20:05.290Z,7.00
2019-03-23T20:24:56.650Z,6.90
2019-03-23T20:29:48.394Z,6.80
2019-03-23T20:34:41.680Z,6.70
2019-03-23T20:39:33.170Z,6.60
2019-03-23T20:44:24.432Z,6.60
2019-03-23T20:49:15.930Z,6.40
2019-03-23T20:54:07.279Z,6.30
2019-03-23T20:58:58.726Z,6.20
2019-03-23T21:03:50.044Z,6.10
2019-03-23T21:08:43.617Z,6.10
2019-03-23T21:13:35.192Z,5.90
2019-03-23T21:18:28.641Z,5.90
2019-03-23T21:23:20.222Z,5.80
2019-03-23T21:28:11.473Z,5.70
2019-03-23T21:33:05.082Z,5.60
2019-03-23T21:37:56.515Z,5.50
2019-03-23T21:42:47.972Z,5.50
2019-03-23T21:47:41.520Z,5.40
2019-03-23T21:52:33.050Z,5.30
2019-03-23T21:57:24.358Z,5.10
2019-03-23T22:02:16.073Z,5.00
2019-03-23T22:07:07.100Z,5.00
2019-03-23T22:11:58.620Z,4.90
2019-03-23T22:16:49.899Z,4.80
2019-03-23T22:21:43.489Z,4.70
2019-03-23T22:26:34.913Z,4.70
2019-03-23T22:31:30.802Z,4.60
2019-03-23T22:36:22.305Z,4.60
2019-03-23T22:41:14.005Z,4.50
2019-03-23T22:46:05.013Z,4.30
2019-03-23T22:50:56.449Z,4.20
2019-03-23T22:55:47.842Z,4.10
2019-03-23T23:00:39.197Z,4.00
2019-03-23T23:05:30.554Z,4.00
2019-03-23T23:10:22.317Z,4.00
2019-03-23T23:15:13.313Z,4.00
2019-03-23T23:20:04.716Z,3.90
2019-03-23T23:24:56.811Z,3.80
2019-03-23T23:29:48.357Z,3.70
2019-03-23T23:34:39.717Z,3.70
2019-03-23T23:39:31.236Z,3.70
2019-03-23T23:44:24.745Z,3.70
2019-03-23T23:49:18.433Z,3.70
2019-03-23T23:54:12.026Z,3.70
2019-03-23T23:59:03.554Z,3.60
